| Date | Time | Temp. (oF) | Dew Point (oF) | Rel. Hum. (%) | Press. (in.) | Wind Dir. | Wind Speed (mph) | Hourly Rainfall (in.) |
|
|---|---|---|---|---|---|---|---|---|---|
| 1 | 11/12 | 00:00 | 38 | 21 | 52 | 30.24 | N | 12 | 0.00 |
| 2 | 11/11 | 23:00 | 39 | 21 | 49 | 30.23 | NNW | 3 | 0.00 |
| 3 | 11/11 | 22:00 | 41 | 22 | 48 | 30.23 | NNE | 8 | 0.00 |
| 4 | 11/11 | 21:00 | 43 | 24 | 47 | 30.20 | NNW | 14 | 0.00 |
| 5 | 11/11 | 20:00 | 45 | 24 | 44 | 30.16 | N | 7 | 0.00 |
| 6 | 11/11 | 19:00 | 47 | 22 | 38 | 30.10 | NE | 10 | 0.00 |
| 7 | 11/11 | 18:00 | 50 | 28 | 43 | 30.03 | NNE | 9 | 0.00 |
| 8 | 11/11 | 17:00 | 54 | 30 | 41 | 29.98 | N | 16 | 0.00 |
| 9 | 11/11 | 16:00 | 57 | 34 | 42 | 29.92 | NNE | 14 | 0.00 |
| 10 | 11/11 | 15:00 | 59 | 33 | 39 | 29.87 | N | 18 | 0.00 |
| 11 | 11/11 | 14:00 | 62 | 36 | 39 | 29.85 | NNW | 9 | 0.00 |
| 12 | 11/11 | 13:00 | 60 | 38 | 45 | 29.85 | N | 10 | 0.00 |
| 13 | 11/11 | 12:00 | 60 | 40 | 49 | 29.85 | N | 15 | 0.00 |
| 14 | 11/11 | 11:00 | 59 | 39 | 49 | 29.85 | N | 10 | 0.00 |
| 15 | 11/11 | 10:00 | 59 | 40 | 51 | 29.84 | SW | 7 | 0.00 |
| 16 | 11/11 | 09:00 | 56 | 40 | 57 | 29.83 | WNW | 5 | 0.00 |
| 17 | 11/11 | 08:00 | 49 | 38 | 68 | 29.83 | WSW | 3 | 0.00 |
| 18 | 11/11 | 07:00 | 46 | 34 | 65 | 29.81 | SW | 0 | 0.00 |
| 19 | 11/11 | 06:00 | 46 | 33 | 62 | 29.78 | WSW | 2 | 0.00 |
| 20 | 11/11 | 05:00 | 44 | 31 | 61 | 29.78 | W | 3 | 0.00 |
| 21 | 11/11 | 04:00 | 44 | 31 | 62 | 29.76 | WSW | 1 | 0.00 |
| 22 | 11/11 | 03:00 | 43 | 30 | 62 | 29.76 | WSW | 0 | 0.00 |
| 23 | 11/11 | 02:00 | 44 | 30 | 60 | 29.77 | WSW | 2 | 0.00 |
| 24 | 11/11 | 01:00 | 44 | 31 | 62 | 29.78 | SW | 0 | 0.00 |